Startpagina
METAR-TAF:

METAR-TAF

Vliegvelden :

Luchthaven Damascus

Damascus, Syrië

breedte: 33-25N, lengte: 036-31E, hoogte: 608 m

Actueel weer

Dit bericht is 31 minuten geleden gemaakt, om 14:00 UTC
Wind 4 kt uit het noordwesten
Temperatuur 25°C
Vochtigheid 19%
Druk 1017 hPa

METAR: OSDI 261400Z 32004KT GAVOK 25/00 Q1017

Tijdstip: 17:31 (14:31 UTC)

Verwachting

Dit bericht is 11 uur en het 31 minuten geleden gemaakt, om 03:00 UTC
Verwachting geldig van 26 om 06 UTC tot 27 om 12 UTC
Wind 3 kt uit variabele richting
Zicht 10 km of meer
geen wolken onder 1500 m en geen cumulonimbus
Tijdelijke
van 26 om 08 UTC tot 26 om 18 UTC
Wind 10 kt uit het zuidzuidoosten
Zicht 10 km of meer
Weinig wolken op 3000 ft

TAF: OSDI 260300Z 2606/2712 VRB03KT CAVOK TEMPO 2608/2618 16010KT 9999 FEW030

Waarnemingen en weersverwachtingen van meer dan 4000 vliegvelden (METAR en TAF).

De beschikbare stations zijn de gele en rode punten op de kaart.

Ga met uw muis naar het station om de naam te zien.

Klik dan om waarnemingen en weersverwachtingen te zien.

kaart wijzigen: klik op de groene knoppen met een zwart kruis om in te zoomen, op de groene knop met een streepje om uit te zoomen of op de groene pijlen voor aangrenzende kaarten.


METAR-TAF: